Wilmington, OH

11:07 AM EST on December 27, 2014 (GMT -0500)
Springfield-Beckley Municipal | Change Station
CLOSE
Current Station
Airport
Location: Springfield,
Elevation: 1050 ft
Nearby Weather Stations

Elev 1050 ft 39.84 °N, 83.84 °W | Updated 11 minutes ago

Overcast
Overcast
48 °F
Feels Like 48 °F
N
9
Wind Variable Wind from SSW

Today
High -- | Low -- °F
--% Chance of Precip.
Yesterday
High -- | Low -- °F
Precip. -- in
7:54 AM 5:18 PM
Waxing Crescent, 37% visible
Pressure 30.19 in
Visibility 10.0 miles
Clouds Overcast 5000 ft
Dew Point 38 °F
Humidity 69%
Rainfall 0.00 in
Snow Depth Not available.
UV 1 out of 12
Pollen .10 out of 12
Air Quality Not available.
Flu Activity Not available.
METAR KSGH 271556Z AUTO 20008KT 10SM OVC050 09/03 A3017 RMK AO2 T00880033 OVC V BKN SLP222

More Conditions Fewer Conditions

Pressure 30.19 in
Visibility 10.0 miles
Clouds Overcast 5000 ft
Dew Point 38 °F
Humidity 69%
Rainfall 0.00 in
Snow Depth Not available.
UV 1 out of 12
Pollen .10 out of 12
Air Quality Not available.
Flu Activity Not available.
METAR KSGH 271556Z AUTO 20008KT 10SM OVC050 09/03 A3017 RMK AO2 T00880033 OVC V BKN SLP222

More Conditions Fewer Conditions

10-Day Weather Forecast

Almanac

Astronomy

Dec. 27, 2014 Rise Set
Actual Time
Civil Twilight
Nautical Twilight
Astronomical Twilight
Moon
Length of Visible Light
Length of Day
Tomorrow will be .
, % of the Moon is Illuminated

Today's Extremes

State Highs State Lows

Community

WunderPhotos

Upload Photos

1,780,942 photos uploaded!

WunderBlogs® & News

Nearby

Air Quality

  Air Quality AQ Index Pollutant
Not available.

Snow Depth

Station Depth Elevation

Earthquake Activity

City Distance Mag. Time & Date
Minimum magnitude displayed is 2.5.

Coastal Water Temperatures

Place Temperature

Nearby Weather Stations